Doris T — 5IM730 — position and weather

sailwx.info

Track history (hours):
 
Tides and Currents Weather Stations Pressure Air Temp Water Temp Dewpoint Dewpoint Depression Visibility Wind Speed Wind Dir Waves Ship Positions

Doris T

Last reported at 2017-Dec-02 18:22 UTC. Time now 2017-Dec-17 17:17 UTC.
Position N 25°29' W 079°54'.
Warning: this ship's position is 14 days out of date.

; draft 4.7 m.

Type: Cargo ship. MMSI: 677093000.

Date/timePositionNaut miles runAvg speedWind from/ knotsBaromVisibWave heightAir tempDewpointWater temp
2017-Dec-02 18:22N 25°29' W 079°54'2 6.8
2017-Dec-02 18:01N 25°31' W 079°55'3 6.7
2017-Dec-02 17:30N 25°34' W 079°56'3 6.7
2017-Dec-02 17:00N 25°37' W 079°57'4 7.0
2017-Dec-02 16:30N 25°40' W 079°59'4 7.4
2017-Dec-02 16:01N 25°44' W 079°60'4 8.9
2017-Dec-02 15:31N 25°46' W 080°04'4 8.2
2017-Dec-02 15:00N 25°46' W 080°09'3 5.1
2017-Dec-02 14:31N 25°46' W 080°12'1 2.6
2017-Dec-02 14:01N 25°47' W 080°13'1 3.0
2017-Dec-02 13:30N 25°48' W 080°14'1 2.0
2017-Dec-02 13:00N 25°48' W 080°15'0 0.5
2017-Dec-02 12:30N 25°48' W 080°15'0 0.0
2017-Dec-02 12:00N 25°48' W 080°15'0 0.0
2017-Dec-02 11:27N 25°48' W 080°15'0 0.0
2017-Dec-02 11:00N 25°48' W 080°15'0 0.0
2017-Dec-02 10:30N 25°48' W 080°15'0 0.0
2017-Dec-02 10:00N 25°48' W 080°15'0 0.0
2017-Dec-02 09:30N 25°48' W 080°15'0 0.0
2017-Dec-02 09:00N 25°48' W 080°15'0 0.0
2017-Dec-02 08:30N 25°48' W 080°15'0 0.0
2017-Dec-02 07:57N 25°48' W 080°15'0 0.0
2017-Dec-02 07:30N 25°48' W 080°15'0 0.0
2017-Dec-02 07:00N 25°48' W 080°15'0 0.0
2017-Dec-02 06:30N 25°48' W 080°15'0 0.0
2017-Dec-02 06:00N 25°48' W 080°15'0 0.0
2017-Dec-02 05:30N 25°48' W 080°15'0 0.0
2017-Dec-02 04:51N 25°48' W 080°15'0 0.0
2017-Dec-02 04:30N 25°48' W 080°15'0 0.0
2017-Dec-02 03:48N 25°48' W 080°15'0 0.0
2017-Dec-02 03:27N 25°48' W 080°15'0 0.0
2017-Dec-02 02:57N 25°48' W 080°15'0 0.0
2017-Dec-02 02:27N 25°48' W 080°15'0 0.0
2017-Dec-02 01:54N 25°48' W 080°15'0 0.0
2017-Dec-02 01:30N 25°48' W 080°15'0 0.0
2017-Dec-02 01:00N 25°48' W 080°15'0 0.0
2017-Dec-02 00:27N 25°48' W 080°15'0 0.0
2017-Dec-01 23:57N 25°48' W 080°15'0 0.0
2017-Dec-01 23:27N 25°48' W 080°15'0 0.0
2017-Dec-01 23:00N 25°48' W 080°15'0 0.0
2017-Dec-01 22:30N 25°48' W 080°15'0 0.0
2017-Dec-01 21:57N 25°48' W 080°15'0 0.0
2017-Dec-01 21:30N 25°48' W 080°15'0 0.0
2017-Dec-01 21:00N 25°48' W 080°15'0 0.0
2017-Dec-01 20:30N 25°48' W 080°15'0 0.0
2017-Dec-01 20:00N 25°48' W 080°15'0 0.0
2017-Dec-01 19:30N 25°48' W 080°15'0 0.0
2017-Dec-01 19:00N 25°48' W 080°15'0 0.0
2017-Dec-01 18:30N 25°48' W 080°15'0 0.0
2017-Dec-01 18:00N 25°48' W 080°15'0 0.0
2017-Dec-01 17:30N 25°48' W 080°15'0 0.0
2017-Dec-01 17:00N 25°48' W 080°15'0 0.0
2017-Dec-01 16:30N 25°48' W 080°15'0 0.0
2017-Dec-01 16:00N 25°48' W 080°15'0 0.0
2017-Dec-01 15:30N 25°48' W 080°15'0 0.0
2017-Dec-01 14:51N 25°48' W 080°15'0 0.0
2017-Dec-01 14:30N 25°48' W 080°15'0 0.0
2017-Dec-01 14:00N 25°48' W 080°15'0 0.0
2017-Dec-01 13:26N 25°48' W 080°15'0 0.0
2017-Dec-01 12:59N 25°48' W 080°15'0 0.0
2017-Dec-01 12:29N 25°48' W 080°15'0 0.0
2017-Dec-01 11:59N 25°48' W 080°15'0 0.0
2017-Dec-01 11:29N 25°48' W 080°15'0 0.0
2017-Dec-01 11:01N 25°48' W 080°15'0 0.0
2017-Dec-01 10:31N 25°48' W 080°15'0 0.0
2017-Dec-01 10:01N 25°48' W 080°15'0 0.0
2017-Dec-01 09:31N 25°48' W 080°15'0 0.0
2017-Dec-01 09:01N 25°48' W 080°15'0 0.0
2017-Dec-01 08:31N 25°48' W 080°15'0 0.0
2017-Dec-01 08:01N 25°48' W 080°15'0 0.0
2017-Dec-01 07:30N 25°48' W 080°15'0 0.0
2017-Dec-01 07:01N 25°48' W 080°15'0 0.0
2017-Dec-01 06:30N 25°48' W 080°15'0 0.0
2017-Dec-01 06:00N 25°48' W 080°15'0 0.0
2017-Dec-01 05:30N 25°48' W 080°15'0 0.0
2017-Dec-01 05:01N 25°48' W 080°15'0 0.0
2017-Dec-01 04:30N 25°48' W 080°15'0 0.0
2017-Dec-01 04:00N 25°48' W 080°15'0 0.0
2017-Dec-01 03:31N 25°48' W 080°15'0 0.0
2017-Dec-01 03:00N 25°48' W 080°15'0 0.0
2017-Dec-01 02:30N 25°48' W 080°15'0 0.0
2017-Dec-01 02:00N 25°48' W 080°15'0 0.0
2017-Dec-01 01:30N 25°48' W 080°15'0 0.0
2017-Dec-01 01:00N 25°48' W 080°15'0 0.0
2017-Dec-01 00:30N 25°48' W 080°15'0 0.0
2017-Dec-01 00:00N 25°48' W 080°15'0 0.0
2017-Nov-30 23:30N 25°48' W 080°15'0 0.0
2017-Nov-30 23:00N 25°48' W 080°15'0 0.0
2017-Nov-30 22:30N 25°48' W 080°15'0 0.0
2017-Nov-30 22:00N 25°48' W 080°15'0 0.0
2017-Nov-30 21:31N 25°48' W 080°15'0 0.0
2017-Nov-30 21:00N 25°48' W 080°15'0 0.0
2017-Nov-30 20:30N 25°48' W 080°15'0 0.0
2017-Nov-30 20:00N 25°48' W 080°15'0 0.0
2017-Nov-30 19:30N 25°48' W 080°15'0 0.0
2017-Nov-30 19:00N 25°48' W 080°15'0 0.0
2017-Nov-30 18:31N 25°48' W 080°15'0 0.0
2017-Nov-30 18:00N 25°48' W 080°15'0 0.0
2017-Nov-30 17:30N 25°48' W 080°15'0 0.0
2017-Nov-30 17:00N 25°48' W 080°15'0 0.0
2017-Nov-30 16:30N 25°48' W 080°15'0 0.0
2017-Nov-30 16:00N 25°48' W 080°15'0 0.0
2017-Nov-30 15:30N 25°48' W 080°15'0 0.0
2017-Nov-30 15:00N 25°48' W 080°15'0 0.0
2017-Nov-30 14:30N 25°48' W 080°15'0 0.0
2017-Nov-30 14:00N 25°48' W 080°15'0 0.0
2017-Nov-30 13:30N 25°48' W 080°15'0 0.0
2017-Nov-30 13:00N 25°48' W 080°15'0 0.0
2017-Nov-30 12:30N 25°48' W 080°15'0 0.0
2017-Nov-30 12:00N 25°48' W 080°15'0 0.0
2017-Nov-30 11:30N 25°48' W 080°15'0 0.0
2017-Nov-30 11:00N 25°48' W 080°15'0 0.0
2017-Nov-30 10:30N 25°48' W 080°15'0 0.0
2017-Nov-30 10:00N 25°48' W 080°15'0 0.0
2017-Nov-30 09:30N 25°48' W 080°15'0 0.0
2017-Nov-30 09:00N 25°48' W 080°15'0 0.0
2017-Nov-30 08:30N 25°48' W 080°15'0 0.0
2017-Nov-30 08:00N 25°48' W 080°15'0 0.0
2017-Nov-30 07:30N 25°48' W 080°15'0 0.0
2017-Nov-30 07:01N 25°48' W 080°15'0 0.0
2017-Nov-30 06:30N 25°48' W 080°15'0 0.0
2017-Nov-30 06:00N 25°48' W 080°15'0 0.0
2017-Nov-30 05:30N 25°48' W 080°15'0 0.0
2017-Nov-30 05:00N 25°48' W 080°15'0 0.0
2017-Nov-30 04:30N 25°48' W 080°15'0 0.0
2017-Nov-30 04:00N 25°48' W 080°15'0 0.0
2017-Nov-30 03:30N 25°48' W 080°15'0 0.0
2017-Nov-30 03:00N 25°48' W 080°15'0 0.0
2017-Nov-30 02:30N 25°48' W 080°15'0 0.0
2017-Nov-30 02:00N 25°48' W 080°15'0 0.0
2017-Nov-30 01:30N 25°48' W 080°15'0 0.0
2017-Nov-30 01:00N 25°48' W 080°15'0 0.0
2017-Nov-30 00:30N 25°48' W 080°15'0 0.0
2017-Nov-30 00:00N 25°48' W 080°15'0 0.0
2017-Nov-29 23:30N 25°48' W 080°15'0 0.0
2017-Nov-29 23:00N 25°48' W 080°15'0 0.0
2017-Nov-29 22:30N 25°48' W 080°15'0 0.0
2017-Nov-29 22:01N 25°48' W 080°15'0 0.0
2017-Nov-29 21:30N 25°48' W 080°15'0 0.0
2017-Nov-29 20:56N 25°48' W 080°15'0 0.0
2017-Nov-29 20:29N 25°48' W 080°15'0 0.0
2017-Nov-29 19:59N 25°48' W 080°15'0 0.0
2017-Nov-29 19:29N 25°48' W 080°15'0 0.0
2017-Nov-29 18:59N 25°48' W 080°15'0 0.0
2017-Nov-29 18:29N 25°48' W 080°15'0 0.0
2017-Nov-29 17:56N 25°48' W 080°15'0 0.0
2017-Nov-29 17:29N 25°48' W 080°15'0 0.0
2017-Nov-29 16:59N 25°48' W 080°15'0 0.0
2017-Nov-29 16:29N 25°48' W 080°15'0 0.0
2017-Nov-29 16:00N 25°48' W 080°15'0 0.0
2017-Nov-29 15:24N 25°48' W 080°15'0 0.0
2017-Nov-29 15:00N 25°48' W 080°15'0 0.0
2017-Nov-29 14:30N 25°48' W 080°15'0 0.0
2017-Nov-29 14:00N 25°48' W 080°15'0 0.0
2017-Nov-29 13:30N 25°48' W 080°15'0 0.0
2017-Nov-29 13:00N 25°48' W 080°15'0 0.0
2017-Nov-29 12:30N 25°48' W 080°15'0 0.0
2017-Nov-29 12:00N 25°48' W 080°15'0 0.0
2017-Nov-29 11:30N 25°48' W 080°15'0 0.0
2017-Nov-29 11:00N 25°48' W 080°15'0 0.0
2017-Nov-29 10:30N 25°48' W 080°15'0 0.0
2017-Nov-29 10:00N 25°48' W 080°15'0 0.0
2017-Nov-29 09:30N 25°48' W 080°15'0 0.0
2017-Nov-29 09:00N 25°48' W 080°15'0 0.0
2017-Nov-29 08:30N 25°48' W 080°15'0 0.0
2017-Nov-29 08:00N 25°48' W 080°15'0 0.0
2017-Nov-29 07:30N 25°48' W 080°15'0 0.0
2017-Nov-29 07:00N 25°48' W 080°15'0 0.0
2017-Nov-29 06:30N 25°48' W 080°15'0 0.0
2017-Nov-29 06:00N 25°48' W 080°15'0 0.0
2017-Nov-29 05:30N 25°48' W 080°15'0 0.0
2017-Nov-29 05:00N 25°48' W 080°15'0 0.0
2017-Nov-29 04:30N 25°48' W 080°15'0 0.0
2017-Nov-29 04:00N 25°48' W 080°15'0 0.0
2017-Nov-29 03:30N 25°48' W 080°15'0 0.0
2017-Nov-29 03:00N 25°48' W 080°15'0 0.0
2017-Nov-29 02:30N 25°48' W 080°15'0 0.0
2017-Nov-29 02:00N 25°48' W 080°15'0 0.0
2017-Nov-29 01:30N 25°48' W 080°15'0 0.0
2017-Nov-29 01:00N 25°48' W 080°15'0 0.0
2017-Nov-29 00:30N 25°48' W 080°15'0 0.0
2017-Nov-29 00:00N 25°48' W 080°15'0 0.0
2017-Nov-28 23:30N 25°48' W 080°15'0 0.0
2017-Nov-28 23:00N 25°48' W 080°15'0 0.0
2017-Nov-28 22:31N 25°48' W 080°15'0 0.0
2017-Nov-28 22:00N 25°48' W 080°15'0 0.0
2017-Nov-28 21:30N 25°48' W 080°15'0 0.0
2017-Nov-28 21:00N 25°48' W 080°15'0 0.0
2017-Nov-28 20:31N 25°48' W 080°15'0 0.0
2017-Nov-28 20:00N 25°48' W 080°15'0 0.0
2017-Nov-28 19:30N 25°48' W 080°15'0 0.0
2017-Nov-28 19:00N 25°48' W 080°15'0 0.0
2017-Nov-28 18:31N 25°48' W 080°15'0 0.0
2017-Nov-28 18:00N 25°48' W 080°15'0 0.0
2017-Nov-28 17:31N 25°48' W 080°15'0 0.0
2017-Nov-28 17:00N 25°48' W 080°15'0 0.0
2017-Nov-28 16:30N 25°48' W 080°15'0 0.0
2017-Nov-28 16:00N 25°48' W 080°15'0 0.0
2017-Nov-28 15:01N 25°48' W 080°15'0 0.0
2017-Nov-28 14:30N 25°48' W 080°15'0 0.0
2017-Nov-28 14:01N 25°48' W 080°15'0 0.0
2017-Nov-28 13:30N 25°48' W 080°15'0 0.0
2017-Nov-28 13:01N 25°48' W 080°15'0 0.0
2017-Nov-28 12:31N 25°48' W 080°15'0 0.0
2017-Nov-28 12:00N 25°48' W 080°15'0 0.0
2017-Nov-28 11:31N 25°48' W 080°15'0 0.0
2017-Nov-28 11:00N 25°48' W 080°15'0 0.0
2017-Nov-28 10:30N 25°48' W 080°15'0 0.0
2017-Nov-28 10:01N 25°48' W 080°15'0 0.0
2017-Nov-28 09:30N 25°48' W 080°15'0 0.0
2017-Nov-28 09:01N 25°48' W 080°15'0 0.0
2017-Nov-28 08:31N 25°48' W 080°15'0 0.0
2017-Nov-28 08:00N 25°48' W 080°15'0 0.0
2017-Nov-28 07:30N 25°48' W 080°15'0 0.0
2017-Nov-28 07:01N 25°48' W 080°15'0 0.0
2017-Nov-28 06:30N 25°48' W 080°15'0 0.0
2017-Nov-28 06:01N 25°48' W 080°15'0 0.0
2017-Nov-28 05:30N 25°48' W 080°15'0 0.0
2017-Nov-28 04:31N 25°48' W 080°15'0 0.0
2017-Nov-28 04:00N 25°48' W 080°15'0 0.0
2017-Nov-28 03:31N 25°48' W 080°15'0 0.0
2017-Nov-28 03:00N 25°48' W 080°15'0 0.0
2017-Nov-28 02:30N 25°48' W 080°15'0 0.0
2017-Nov-28 02:00N 25°48' W 080°15'0 0.0
2017-Nov-28 01:31N 25°48' W 080°15'0 0.0
2017-Nov-28 01:01N 25°48' W 080°15'0 0.0
2017-Nov-28 00:31N 25°48' W 080°15'0 0.0
2017-Nov-28 00:01N 25°48' W 080°15'0 0.0
2017-Nov-27 23:31N 25°48' W 080°15'0 0.0
2017-Nov-27 23:00N 25°48' W 080°15'0 0.0
2017-Nov-27 22:31N 25°48' W 080°15'0 0.0
2017-Nov-27 22:00N 25°48' W 080°15'0 0.0
2017-Nov-27 21:31N 25°48' W 080°15'0 0.0
2017-Nov-27 21:01N 25°48' W 080°15'0 0.0
2017-Nov-27 20:31N 25°48' W 080°15'0 0.0
2017-Nov-27 20:01N 25°48' W 080°15'0 0.0
2017-Nov-27 19:31N 25°48' W 080°15'0 0.0
2017-Nov-27 19:01N 25°48' W 080°15'0 0.0
2017-Nov-27 18:31N 25°48' W 080°15'0 0.0
2017-Nov-27 18:00N 25°48' W 080°15'0 0.0
2017-Nov-27 17:30N 25°48' W 080°15'0 0.0
2017-Nov-27 17:00N 25°48' W 080°15'0 0.0
2017-Nov-27 16:31N 25°48' W 080°15'0 0.0
2017-Nov-27 16:01N 25°48' W 080°15'0 0.0
2017-Nov-27 15:31N 25°48' W 080°15'0 0.0
2017-Nov-27 15:01N 25°48' W 080°15'0 0.0
2017-Nov-27 14:30N 25°48' W 080°15'0 0.0
2017-Nov-27 14:01N 25°48' W 080°15'0 0.0
2017-Nov-27 13:31N 25°48' W 080°15'0 0.0
2017-Nov-27 13:00N 25°48' W 080°15'0 0.0
2017-Nov-27 12:30N 25°48' W 080°15'0 0.0
2017-Nov-27 12:01N 25°48' W 080°15'0 0.0
2017-Nov-27 11:31N 25°48' W 080°15'0 0.0
2017-Nov-27 11:00N 25°48' W 080°15'0 0.0
2017-Nov-27 10:31N 25°48' W 080°15'0 0.0
2017-Nov-27 10:00N 25°48' W 080°15'0 0.0
2017-Nov-27 09:31N 25°48' W 080°15'0 0.0
2017-Nov-27 09:01N 25°48' W 080°15'0 0.0
2017-Nov-27 08:31N 25°48' W 080°15'0 0.0
2017-Nov-27 08:01N 25°48' W 080°15'0 0.0
2017-Nov-27 07:31N 25°48' W 080°15'0 0.0
2017-Nov-27 07:01N 25°48' W 080°15'0 0.0
2017-Nov-27 06:31N 25°48' W 080°15'0 0.0
2017-Nov-27 06:01N 25°48' W 080°15'0 0.0
2017-Nov-27 05:31N 25°48' W 080°15'0 0.0
2017-Nov-27 05:01N 25°48' W 080°15'0 0.0
2017-Nov-27 04:30N 25°48' W 080°15'0 0.0
2017-Nov-27 04:01N 25°48' W 080°15'0 0.0
2017-Nov-27 03:30N 25°48' W 080°15'0 0.0
2017-Nov-27 03:01N 25°48' W 080°15'0 0.0
2017-Nov-27 02:31N 25°48' W 080°15'0 0.0
2017-Nov-27 02:01N 25°48' W 080°15'0 0.0
2017-Nov-27 01:30N 25°48' W 080°15'0 0.0
2017-Nov-27 01:00N 25°48' W 080°15'0 0.0
2017-Nov-27 00:30N 25°48' W 080°15'0 0.0
2017-Nov-27 00:00N 25°48' W 080°15'0 0.0
2017-Nov-26 23:31N 25°48' W 080°15'0 0.0
2017-Nov-26 23:00N 25°48' W 080°15'0 0.0
2017-Nov-26 22:30N 25°48' W 080°15'0 0.0
2017-Nov-26 22:01N 25°48' W 080°15'0 0.0
2017-Nov-26 21:30N 25°48' W 080°15'0 0.0
2017-Nov-26 21:01N 25°48' W 080°15'0 0.0
2017-Nov-26 20:30N 25°48' W 080°15'0 0.0
2017-Nov-26 20:01N 25°48' W 080°15'0 0.0
2017-Nov-26 19:30N 25°48' W 080°15'0 0.0
2017-Nov-26 19:01N 25°48' W 080°15'0 0.0
2017-Nov-26 18:31N 25°48' W 080°15'0 0.0
2017-Nov-26 18:01N 25°48' W 080°15'0 0.0
2017-Nov-26 17:31N 25°48' W 080°15'0 0.0
2017-Nov-26 17:01N 25°48' W 080°15'0 0.0
2017-Nov-26 16:30N 25°48' W 080°15'0 0.0
2017-Nov-26 16:01N 25°48' W 080°15'0 0.0
2017-Nov-26 15:31N 25°48' W 080°15'0 0.0
2017-Nov-26 15:01N 25°48' W 080°15'0 0.0
2017-Nov-26 14:30N 25°48' W 080°15'0 0.0
2017-Nov-26 14:01N 25°48' W 080°15'0 0.0
2017-Nov-26 13:30N 25°48' W 080°15'0 0.0
2017-Nov-26 13:00N 25°48' W 080°15'0 0.0
2017-Nov-26 12:30N 25°48' W 080°15'0 0.0
2017-Nov-26 12:01N 25°48' W 080°15'0 0.0
2017-Nov-26 11:30N 25°48' W 080°15'0 0.0
2017-Nov-26 11:00N 25°48' W 080°15'0 0.0
2017-Nov-26 10:31N 25°48' W 080°15'0 0.0
2017-Nov-26 10:00N 25°48' W 080°15'0 0.0
2017-Nov-26 09:30N 25°48' W 080°15'0 0.0
2017-Nov-26 09:01N 25°48' W 080°15'0 0.0
2017-Nov-26 08:31N 25°48' W 080°15'0 0.0
2017-Nov-26 08:01N 25°48' W 080°15'0 0.0
2017-Nov-26 07:31N 25°48' W 080°15'0 0.0
2017-Nov-26 07:01N 25°48' W 080°15'0 0.0
2017-Nov-26 06:31N 25°48' W 080°15'0 0.0
2017-Nov-26 06:01N 25°48' W 080°15'0 0.0
2017-Nov-26 05:31N 25°48' W 080°15'0 0.0
2017-Nov-26 05:01N 25°48' W 080°15'0 0.0
2017-Nov-26 04:31N 25°48' W 080°15'0 0.0
2017-Nov-26 04:01N 25°48' W 080°15'0 0.0
2017-Nov-26 03:31N 25°48' W 080°15'0 0.0
2017-Nov-26 03:01N 25°48' W 080°15'0 0.0
2017-Nov-26 02:30N 25°48' W 080°15'0 0.0
2017-Nov-26 02:01N 25°48' W 080°15'0 0.0
2017-Nov-26 01:30N 25°48' W 080°15'0 0.0
2017-Nov-26 01:01N 25°48' W 080°15'0 0.0
2017-Nov-26 00:30N 25°48' W 080°15'0 0.0
2017-Nov-26 00:00N 25°48' W 080°15'0 0.0
2017-Nov-25 23:31N 25°48' W 080°15'0 0.0
2017-Nov-25 23:01N 25°48' W 080°15'0 0.0
2017-Nov-25 22:31N 25°48' W 080°15'0 0.0
2017-Nov-25 22:00N 25°48' W 080°15'0 0.0
2017-Nov-25 21:30N 25°48' W 080°15'0 0.0
2017-Nov-25 21:00N 25°48' W 080°15'0 0.0
2017-Nov-25 20:30N 25°48' W 080°15'0 0.0
2017-Nov-25 20:01N 25°48' W 080°15'0 0.0
2017-Nov-25 19:30N 25°48' W 080°15'0 0.0
2017-Nov-25 19:00N 25°48' W 080°15'0 0.0
2017-Nov-25 18:30N 25°48' W 080°15'0 0.0
2017-Nov-25 18:00N 25°48' W 080°15'0 0.0
2017-Nov-25 17:30N 25°48' W 080°15'0 0.0
2017-Nov-25 17:00N 25°48' W 080°15'0 0.0
2017-Nov-25 16:30N 25°48' W 080°15'0 0.0
2017-Nov-25 16:01N 25°48' W 080°15'0 0.0
2017-Nov-25 15:31N 25°48' W 080°15'0 0.0
2017-Nov-25 15:00N 25°48' W 080°15'0 0.0
2017-Nov-25 14:30N 25°48' W 080°15'0 0.0
2017-Nov-25 14:00N 25°48' W 080°15'0 0.0
2017-Nov-25 13:30N 25°48' W 080°15'0 0.0
2017-Nov-25 13:00N 25°48' W 080°15'0 0.0
2017-Nov-25 12:30N 25°48' W 080°15'0 0.0
2017-Nov-25 12:00N 25°48' W 080°15'0 0.0
2017-Nov-25 11:30N 25°48' W 080°15'0 0.0
2017-Nov-25 11:00N 25°48' W 080°15'0 0.0
2017-Nov-25 10:30N 25°48' W 080°15'0 0.0
2017-Nov-25 10:00N 25°48' W 080°15'0 0.0
2017-Nov-25 09:30N 25°48' W 080°15'0 0.0
2017-Nov-25 09:00N 25°48' W 080°15'0 0.0
2017-Nov-25 08:30N 25°48' W 080°15'0 0.0
2017-Nov-25 08:00N 25°48' W 080°15'0 0.0
2017-Nov-25 07:30N 25°48' W 080°15'0 0.0
2017-Nov-25 07:00N 25°48' W 080°15'0 0.0
2017-Nov-25 06:30N 25°48' W 080°15'0 0.0
2017-Nov-25 06:00N 25°48' W 080°15'0 0.0
2017-Nov-25 05:30N 25°48' W 080°15'0 0.0
2017-Nov-25 05:00N 25°48' W 080°15'0 0.0
2017-Nov-25 04:30N 25°48' W 080°15'0 0.0
2017-Nov-25 04:00N 25°48' W 080°15'0 0.0
2017-Nov-25 03:30N 25°48' W 080°15'0 0.0
2017-Nov-25 03:00N 25°48' W 080°15'0 0.0
2017-Nov-25 02:30N 25°48' W 080°15'0 0.0
2017-Nov-25 02:00N 25°48' W 080°15'0 0.0
2017-Nov-25 01:30N 25°48' W 080°15'0 0.0
2017-Nov-25 01:00N 25°48' W 080°15'0 0.0
2017-Nov-25 00:30N 25°48' W 080°15'0 0.0
2017-Nov-24 23:59N 25°48' W 080°15'0 0.0
2017-Nov-24 23:30N 25°48' W 080°15'0 0.0
2017-Nov-24 23:00N 25°48' W 080°15'0 0.0
2017-Nov-24 22:30N 25°48' W 080°15'0 0.0
2017-Nov-24 22:00N 25°48' W 080°15'0 0.0
2017-Nov-24 21:30N 25°48' W 080°15'0 0.0
2017-Nov-24 21:00N 25°48' W 080°15'0 0.0
2017-Nov-24 20:30N 25°48' W 080°15'0 0.0
2017-Nov-24 20:00N 25°48' W 080°15'0 0.0
2017-Nov-24 19:30N 25°48' W 080°15'0 0.0
2017-Nov-24 19:00N 25°48' W 080°15'0 0.0
2017-Nov-24 18:30N 25°48' W 080°15'0 0.0
2017-Nov-24 18:00N 25°48' W 080°15'0 0.0
2017-Nov-24 17:30N 25°48' W 080°15'0 0.0
2017-Nov-24 17:00N 25°48' W 080°15'0 0.0
2017-Nov-24 16:30N 25°48' W 080°15'0 0.0
2017-Nov-24 16:00N 25°48' W 080°15'0 0.0
2017-Nov-24 15:30N 25°48' W 080°15'0 0.0
2017-Nov-24 15:00N 25°48' W 080°15'0 0.0
2017-Nov-24 14:30N 25°48' W 080°15'0 0.0
2017-Nov-24 14:00N 25°48' W 080°15'0 0.0
2017-Nov-24 13:30N 25°48' W 080°15'0 0.0
2017-Nov-24 13:00N 25°48' W 080°15'0 0.0
2017-Nov-24 12:30N 25°48' W 080°15'0 0.0
2017-Nov-24 12:00N 25°48' W 080°15'0 0.0
2017-Nov-24 11:30N 25°48' W 080°15'0 0.0
2017-Nov-24 11:00N 25°48' W 080°15'0 0.0
2017-Nov-24 10:30N 25°48' W 080°15'0 0.0
2017-Nov-24 10:00N 25°48' W 080°15'0 0.0
2017-Nov-24 09:30N 25°48' W 080°15'0 0.0
2017-Nov-24 09:00N 25°48' W 080°15'0 0.0
2017-Nov-24 08:30N 25°48' W 080°15'0 0.0
2017-Nov-24 08:00N 25°48' W 080°15'0 0.0
2017-Nov-24 07:30N 25°48' W 080°15'0 0.0
2017-Nov-24 07:00N 25°48' W 080°15'0 0.0
2017-Nov-24 06:30N 25°48' W 080°15'0 0.0
2017-Nov-24 06:00N 25°48' W 080°15'0 0.0
2017-Nov-24 05:30N 25°48' W 080°15'0 0.0
2017-Nov-24 05:00N 25°48' W 080°15'0 0.0
2017-Nov-24 04:30N 25°48' W 080°15'0 0.0
2017-Nov-24 04:00N 25°48' W 080°15'0 0.0
2017-Nov-24 03:30N 25°48' W 080°15'0 0.0
2017-Nov-24 03:00N 25°48' W 080°15'0 0.0
2017-Nov-24 02:30N 25°48' W 080°15'0 0.0
2017-Nov-24 02:00N 25°48' W 080°15'0 0.0
2017-Nov-24 01:30N 25°48' W 080°15'0 0.0
2017-Nov-24 01:00N 25°48' W 080°15'0 0.0
2017-Nov-24 00:30N 25°48' W 080°15'0 0.0
2017-Nov-24 00:00N 25°48' W 080°15'0 0.0
2017-Nov-23 23:30N 25°48' W 080°15'0 0.0
2017-Nov-23 23:00N 25°48' W 080°15'0 0.0
2017-Nov-23 22:30N 25°48' W 080°15'0 0.0
2017-Nov-23 22:00N 25°48' W 080°15'0 0.0
2017-Nov-23 21:30N 25°48' W 080°15'0 0.0
2017-Nov-23 21:00N 25°48' W 080°15'0 0.0
2017-Nov-23 20:30N 25°48' W 080°15'0 0.0
2017-Nov-23 20:00N 25°48' W 080°15'0 0.0
2017-Nov-23 19:30N 25°48' W 080°15'0 0.0
2017-Nov-23 19:00N 25°48' W 080°15'0 0.0
2017-Nov-23 18:30N 25°48' W 080°15'0 0.0
2017-Nov-23 18:01N 25°48' W 080°15'0 0.0
2017-Nov-23 17:30N 25°48' W 080°15'0 0.0
2017-Nov-23 17:01N 25°48' W 080°15'0 0.0
2017-Nov-23 16:31N 25°48' W 080°15'0 0.0
2017-Nov-23 16:01N 25°48' W 080°15'0 0.0
2017-Nov-23 15:31N 25°48' W 080°15'0 0.0
2017-Nov-23 15:01N 25°48' W 080°15'0 0.0
2017-Nov-23 14:31N 25°48' W 080°15'0 0.0
2017-Nov-23 14:00N 25°48' W 080°15'0 0.0
2017-Nov-23 13:31N 25°48' W 080°15'0 0.0
2017-Nov-23 13:00N 25°48' W 080°15'0 0.0
2017-Nov-23 12:31N 25°48' W 080°15'0 0.0
2017-Nov-23 12:00N 25°48' W 080°15'0 0.0
2017-Nov-23 11:30N 25°48' W 080°15'0 0.0
2017-Nov-23 11:01N 25°48' W 080°15'0 0.0
2017-Nov-23 10:31N 25°48' W 080°15'0 0.0
2017-Nov-23 10:01N 25°48' W 080°15'0 0.0
2017-Nov-23 09:30N 25°48' W 080°15'0 0.0
2017-Nov-23 09:01N 25°48' W 080°15'0 0.0
2017-Nov-23 08:31N 25°48' W 080°15'0 0.0
2017-Nov-23 08:00N 25°48' W 080°15'0 0.0
2017-Nov-23 07:31N 25°48' W 080°15'0 0.0
2017-Nov-23 07:00N 25°48' W 080°15'0 0.0
2017-Nov-23 06:31N 25°48' W 080°15'0 0.0
2017-Nov-23 06:00N 25°48' W 080°15'0 0.0
2017-Nov-23 05:30N 25°48' W 080°15'0 0.0
2017-Nov-23 05:01N 25°48' W 080°15'0 0.0
2017-Nov-23 04:30N 25°48' W 080°15'0 0.0
2017-Nov-23 04:00N 25°48' W 080°15'0 0.0
2017-Nov-23 03:30N 25°48' W 080°15'0 0.0
2017-Nov-23 03:01N 25°48' W 080°15'0 0.0
2017-Nov-23 02:31N 25°48' W 080°15'0 0.0
2017-Nov-23 02:01N 25°48' W 080°15'0 0.0
2017-Nov-23 01:31N 25°48' W 080°15'0 0.0
2017-Nov-23 01:01N 25°48' W 080°15'0 0.0
2017-Nov-23 00:30N 25°48' W 080°15'0 0.0
2017-Nov-23 00:01N 25°48' W 080°15'0 0.0
2017-Nov-22 23:30N 25°48' W 080°15'0 0.0
2017-Nov-22 23:01N 25°48' W 080°15'0 0.0
2017-Nov-22 22:31N 25°48' W 080°15'0 0.0
2017-Nov-22 22:00N 25°48' W 080°15'0 0.0
2017-Nov-22 21:31N 25°48' W 080°15'0 0.0
2017-Nov-22 21:01N 25°48' W 080°15'0 0.0
2017-Nov-22 20:30N 25°48' W 080°15'0 0.0
2017-Nov-22 20:01N 25°48' W 080°15'0 0.0
2017-Nov-22 19:31N 25°48' W 080°15'  
Track history (hours):
 
Tides and Currents Weather Stations Pressure Air Temp Water Temp Dewpoint Dewpoint Depression Visibility Wind Speed Wind Dir Waves Ship Positions

Doris T

Last reported at 2017-Dec-02 18:22 UTC. Time now 2017-Dec-17 17:17 UTC.
Position N 25°29' W 079°54'.
Warning: this ship's position is 14 days out of date.

; draft 4.7 m.

Type: Cargo ship. MMSI: 677093000.

Date/timePositionNaut miles runAvg speedWind from/ knotsBaromVisibWave heightAir tempDewpointWater temp
2017-Dec-02 18:22N 25°29' W 079°54'2 6.8
2017-Dec-02 18:01N 25°31' W 079°55'3 6.7
2017-Dec-02 17:30N 25°34' W 079°56'3 6.7
2017-Dec-02 17:00N 25°37' W 079°57'4 7.0
2017-Dec-02 16:30N 25°40' W 079°59'4 7.4
2017-Dec-02 16:01N 25°44' W 079°60'4 8.9
2017-Dec-02 15:31N 25°46' W 080°04'4 8.2
2017-Dec-02 15:00N 25°46' W 080°09'3 5.1
2017-Dec-02 14:31N 25°46' W 080°12'1 2.6
2017-Dec-02 14:01N 25°47' W 080°13'1 3.0
2017-Dec-02 13:30N 25°48' W 080°14'1 2.0
2017-Dec-02 13:00N 25°48' W 080°15'0 0.5
2017-Dec-02 12:30N 25°48' W 080°15'0 0.0
2017-Dec-02 12:00N 25°48' W 080°15'0 0.0
2017-Dec-02 11:27N 25°48' W 080°15'0 0.0
2017-Dec-02 11:00N 25°48' W 080°15'0 0.0
2017-Dec-02 10:30N 25°48' W 080°15'0 0.0
2017-Dec-02 10:00N 25°48' W 080°15'0 0.0
2017-Dec-02 09:30N 25°48' W 080°15'0 0.0
2017-Dec-02 09:00N 25°48' W 080°15'0 0.0
2017-Dec-02 08:30N 25°48' W 080°15'0 0.0
2017-Dec-02 07:57N 25°48' W 080°15'0 0.0
2017-Dec-02 07:30N 25°48' W 080°15'0 0.0
2017-Dec-02 07:00N 25°48' W 080°15'0 0.0
2017-Dec-02 06:30N 25°48' W 080°15'0 0.0
2017-Dec-02 06:00N 25°48' W 080°15'0 0.0
2017-Dec-02 05:30N 25°48' W 080°15'0 0.0
2017-Dec-02 04:51N 25°48' W 080°15'0 0.0
2017-Dec-02 04:30N 25°48' W 080°15'0 0.0
2017-Dec-02 03:48N 25°48' W 080°15'0 0.0
2017-Dec-02 03:27N 25°48' W 080°15'0 0.0
2017-Dec-02 02:57N 25°48' W 080°15'0 0.0
2017-Dec-02 02:27N 25°48' W 080°15'0 0.0
2017-Dec-02 01:54N 25°48' W 080°15'0 0.0
2017-Dec-02 01:30N 25°48' W 080°15'0 0.0
2017-Dec-02 01:00N 25°48' W 080°15'0 0.0
2017-Dec-02 00:27N 25°48' W 080°15'0 0.0
2017-Dec-01 23:57N 25°48' W 080°15'0 0.0
2017-Dec-01 23:27N 25°48' W 080°15'0 0.0
2017-Dec-01 23:00N 25°48' W 080°15'0 0.0
2017-Dec-01 22:30N 25°48' W 080°15'0 0.0
2017-Dec-01 21:57N 25°48' W 080°15'0 0.0
2017-Dec-01 21:30N 25°48' W 080°15'0 0.0
2017-Dec-01 21:00N 25°48' W 080°15'0 0.0
2017-Dec-01 20:30N 25°48' W 080°15'0 0.0
2017-Dec-01 20:00N 25°48' W 080°15'0 0.0
2017-Dec-01 19:30N 25°48' W 080°15'0 0.0
2017-Dec-01 19:00N 25°48' W 080°15'0 0.0
2017-Dec-01 18:30N 25°48' W 080°15'0 0.0
2017-Dec-01 18:00N 25°48' W 080°15'0 0.0
2017-Dec-01 17:30N 25°48' W 080°15'0 0.0
2017-Dec-01 17:00N 25°48' W 080°15'0 0.0
2017-Dec-01 16:30N 25°48' W 080°15'0 0.0
2017-Dec-01 16:00N 25°48' W 080°15'0 0.0
2017-Dec-01 15:30N 25°48' W 080°15'0 0.0
2017-Dec-01 14:51N 25°48' W 080°15'0 0.0
2017-Dec-01 14:30N 25°48' W 080°15'0 0.0
2017-Dec-01 14:00N 25°48' W 080°15'0 0.0
2017-Dec-01 13:26N 25°48' W 080°15'0 0.0
2017-Dec-01 12:59N 25°48' W 080°15'0 0.0
2017-Dec-01 12:29N 25°48' W 080°15'0 0.0
2017-Dec-01 11:59N 25°48' W 080°15'0 0.0
2017-Dec-01 11:29N 25°48' W 080°15'0 0.0
2017-Dec-01 11:01N 25°48' W 080°15'0 0.0
2017-Dec-01 10:31N 25°48' W 080°15'0 0.0
2017-Dec-01 10:01N 25°48' W 080°15'0 0.0
2017-Dec-01 09:31N 25°48' W 080°15'0 0.0
2017-Dec-01 09:01N 25°48' W 080°15'0 0.0
2017-Dec-01 08:31N 25°48' W 080°15'0 0.0
2017-Dec-01 08:01N 25°48' W 080°15'0 0.0
2017-Dec-01 07:30N 25°48' W 080°15'0 0.0
2017-Dec-01 07:01N 25°48' W 080°15'0 0.0
2017-Dec-01 06:30N 25°48' W 080°15'0 0.0
2017-Dec-01 06:00N 25°48' W 080°15'0 0.0
2017-Dec-01 05:30N 25°48' W 080°15'0 0.0
2017-Dec-01 05:01N 25°48' W 080°15'0 0.0
2017-Dec-01 04:30N 25°48' W 080°15'0 0.0
2017-Dec-01 04:00N 25°48' W 080°15'0 0.0
2017-Dec-01 03:31N 25°48' W 080°15'0 0.0
2017-Dec-01 03:00N 25°48' W 080°15'0 0.0
2017-Dec-01 02:30N 25°48' W 080°15'0 0.0
2017-Dec-01 02:00N 25°48' W 080°15'0 0.0
2017-Dec-01 01:30N 25°48' W 080°15'0 0.0
2017-Dec-01 01:00N 25°48' W 080°15'0 0.0
2017-Dec-01 00:30N 25°48' W 080°15'0 0.0
2017-Dec-01 00:00N 25°48' W 080°15'0 0.0
2017-Nov-30 23:30N 25°48' W 080°15'0 0.0
2017-Nov-30 23:00N 25°48' W 080°15'0 0.0
2017-Nov-30 22:30N 25°48' W 080°15'0 0.0
2017-Nov-30 22:00N 25°48' W 080°15'0 0.0
2017-Nov-30 21:31N 25°48' W 080°15'0 0.0
2017-Nov-30 21:00N 25°48' W 080°15'0 0.0
2017-Nov-30 20:30N 25°48' W 080°15'0 0.0
2017-Nov-30 20:00N 25°48' W 080°15'0 0.0
2017-Nov-30 19:30N 25°48' W 080°15'0 0.0
2017-Nov-30 19:00N 25°48' W 080°15'0 0.0
2017-Nov-30 18:31N 25°48' W 080°15'0 0.0
2017-Nov-30 18:00N 25°48' W 080°15'0 0.0
2017-Nov-30 17:30N 25°48' W 080°15'0 0.0
2017-Nov-30 17:00N 25°48' W 080°15'0 0.0
2017-Nov-30 16:30N 25°48' W 080°15'0 0.0
2017-Nov-30 16:00N 25°48' W 080°15'0 0.0
2017-Nov-30 15:30N 25°48' W 080°15'0 0.0
2017-Nov-30 15:00N 25°48' W 080°15'0 0.0
2017-Nov-30 14:30N 25°48' W 080°15'0 0.0
2017-Nov-30 14:00N 25°48' W 080°15'0 0.0
2017-Nov-30 13:30N 25°48' W 080°15'0 0.0
2017-Nov-30 13:00N 25°48' W 080°15'0 0.0
2017-Nov-30 12:30N 25°48' W 080°15'0 0.0
2017-Nov-30 12:00N 25°48' W 080°15'0 0.0
2017-Nov-30 11:30N 25°48' W 080°15'0 0.0
2017-Nov-30 11:00N 25°48' W 080°15'0 0.0
2017-Nov-30 10:30N 25°48' W 080°15'0 0.0
2017-Nov-30 10:00N 25°48' W 080°15'0 0.0
2017-Nov-30 09:30N 25°48' W 080°15'0 0.0
2017-Nov-30 09:00N 25°48' W 080°15'0 0.0
2017-Nov-30 08:30N 25°48' W 080°15'0 0.0
2017-Nov-30 08:00N 25°48' W 080°15'0 0.0
2017-Nov-30 07:30N 25°48' W 080°15'0 0.0
2017-Nov-30 07:01N 25°48' W 080°15'0 0.0
2017-Nov-30 06:30N 25°48' W 080°15'0 0.0
2017-Nov-30 06:00N 25°48' W 080°15'0 0.0
2017-Nov-30 05:30N 25°48' W 080°15'0 0.0
2017-Nov-30 05:00N 25°48' W 080°15'0 0.0
2017-Nov-30 04:30N 25°48' W 080°15'0 0.0
2017-Nov-30 04:00N 25°48' W 080°15'0 0.0
2017-Nov-30 03:30N 25°48' W 080°15'0 0.0
2017-Nov-30 03:00N 25°48' W 080°15'0 0.0
2017-Nov-30 02:30N 25°48' W 080°15'0 0.0
2017-Nov-30 02:00N 25°48' W 080°15'0 0.0
2017-Nov-30 01:30N 25°48' W 080°15'0 0.0
2017-Nov-30 01:00N 25°48' W 080°15'0 0.0
2017-Nov-30 00:30N 25°48' W 080°15'0 0.0
2017-Nov-30 00:00N 25°48' W 080°15'0 0.0
2017-Nov-29 23:30N 25°48' W 080°15'0 0.0
2017-Nov-29 23:00N 25°48' W 080°15'0 0.0
2017-Nov-29 22:30N 25°48' W 080°15'0 0.0
2017-Nov-29 22:01N 25°48' W 080°15'0 0.0
2017-Nov-29 21:30N 25°48' W 080°15'0 0.0
2017-Nov-29 20:56N 25°48' W 080°15'0 0.0
2017-Nov-29 20:29N 25°48' W 080°15'0 0.0
2017-Nov-29 19:59N 25°48' W 080°15'0 0.0
2017-Nov-29 19:29N 25°48' W 080°15'0 0.0
2017-Nov-29 18:59N 25°48' W 080°15'0 0.0
2017-Nov-29 18:29N 25°48' W 080°15'0 0.0
2017-Nov-29 17:56N 25°48' W 080°15'0 0.0
2017-Nov-29 17:29N 25°48' W 080°15'0 0.0
2017-Nov-29 16:59N 25°48' W 080°15'0 0.0
2017-Nov-29 16:29N 25°48' W 080°15'0 0.0
2017-Nov-29 16:00N 25°48' W 080°15'0 0.0
2017-Nov-29 15:24N 25°48' W 080°15'0 0.0
2017-Nov-29 15:00N 25°48' W 080°15'0 0.0
2017-Nov-29 14:30N 25°48' W 080°15'0 0.0
2017-Nov-29 14:00N 25°48' W 080°15'0 0.0
2017-Nov-29 13:30N 25°48' W 080°15'0 0.0
2017-Nov-29 13:00N 25°48' W 080°15'0 0.0
2017-Nov-29 12:30N 25°48' W 080°15'0 0.0
2017-Nov-29 12:00N 25°48' W 080°15'0 0.0
2017-Nov-29 11:30N 25°48' W 080°15'0 0.0
2017-Nov-29 11:00N 25°48' W 080°15'0 0.0
2017-Nov-29 10:30N 25°48' W 080°15'0 0.0
2017-Nov-29 10:00N 25°48' W 080°15'0 0.0
2017-Nov-29 09:30N 25°48' W 080°15'0 0.0
2017-Nov-29 09:00N 25°48' W 080°15'0 0.0
2017-Nov-29 08:30N 25°48' W 080°15'0 0.0
2017-Nov-29 08:00N 25°48' W 080°15'0 0.0
2017-Nov-29 07:30N 25°48' W 080°15'0 0.0
2017-Nov-29 07:00N 25°48' W 080°15'0 0.0
2017-Nov-29 06:30N 25°48' W 080°15'0 0.0
2017-Nov-29 06:00N 25°48' W 080°15'0 0.0
2017-Nov-29 05:30N 25°48' W 080°15'0 0.0
2017-Nov-29 05:00N 25°48' W 080°15'0 0.0
2017-Nov-29 04:30N 25°48' W 080°15'0 0.0
2017-Nov-29 04:00N 25°48' W 080°15'0 0.0
2017-Nov-29 03:30N 25°48' W 080°15'0 0.0
2017-Nov-29 03:00N 25°48' W 080°15'0 0.0
2017-Nov-29 02:30N 25°48' W 080°15'0 0.0
2017-Nov-29 02:00N 25°48' W 080°15'0 0.0
2017-Nov-29 01:30N 25°48' W 080°15'0 0.0
2017-Nov-29 01:00N 25°48' W 080°15'0 0.0
2017-Nov-29 00:30N 25°48' W 080°15'0 0.0
2017-Nov-29 00:00N 25°48' W 080°15'0 0.0
2017-Nov-28 23:30N 25°48' W 080°15'0 0.0
2017-Nov-28 23:00N 25°48' W 080°15'0 0.0
2017-Nov-28 22:31N 25°48' W 080°15'0 0.0
2017-Nov-28 22:00N 25°48' W 080°15'0 0.0
2017-Nov-28 21:30N 25°48' W 080°15'0 0.0
2017-Nov-28 21:00N 25°48' W 080°15'0 0.0
2017-Nov-28 20:31N 25°48' W 080°15'0 0.0
2017-Nov-28 20:00N 25°48' W 080°15'0 0.0
2017-Nov-28 19:30N 25°48' W 080°15'0 0.0
2017-Nov-28 19:00N 25°48' W 080°15'0 0.0
2017-Nov-28 18:31N 25°48' W 080°15'0 0.0
2017-Nov-28 18:00N 25°48' W 080°15'0 0.0
2017-Nov-28 17:31N 25°48' W 080°15'0 0.0
2017-Nov-28 17:00N 25°48' W 080°15'0 0.0
2017-Nov-28 16:30N 25°48' W 080°15'0 0.0
2017-Nov-28 16:00N 25°48' W 080°15'0 0.0
2017-Nov-28 15:01N 25°48' W 080°15'0 0.0
2017-Nov-28 14:30N 25°48' W 080°15'0 0.0
2017-Nov-28 14:01N 25°48' W 080°15'0 0.0
2017-Nov-28 13:30N 25°48' W 080°15'0 0.0
2017-Nov-28 13:01N 25°48' W 080°15'0 0.0
2017-Nov-28 12:31N 25°48' W 080°15'0 0.0
2017-Nov-28 12:00N 25°48' W 080°15'0 0.0
2017-Nov-28 11:31N 25°48' W 080°15'0 0.0
2017-Nov-28 11:00N 25°48' W 080°15'0 0.0
2017-Nov-28 10:30N 25°48' W 080°15'0 0.0
2017-Nov-28 10:01N 25°48' W 080°15'0 0.0
2017-Nov-28 09:30N 25°48' W 080°15'0 0.0
2017-Nov-28 09:01N 25°48' W 080°15'0 0.0
2017-Nov-28 08:31N 25°48' W 080°15'0 0.0
2017-Nov-28 08:00N 25°48' W 080°15'0 0.0
2017-Nov-28 07:30N 25°48' W 080°15'0 0.0
2017-Nov-28 07:01N 25°48' W 080°15'0 0.0
2017-Nov-28 06:30N 25°48' W 080°15'0 0.0
2017-Nov-28 06:01N 25°48' W 080°15'0 0.0
2017-Nov-28 05:30N 25°48' W 080°15'0 0.0
2017-Nov-28 04:31N 25°48' W 080°15'0 0.0
2017-Nov-28 04:00N 25°48' W 080°15'0 0.0
2017-Nov-28 03:31N 25°48' W 080°15'0 0.0
2017-Nov-28 03:00N 25°48' W 080°15'0 0.0
2017-Nov-28 02:30N 25°48' W 080°15'0 0.0
2017-Nov-28 02:00N 25°48' W 080°15'0 0.0
2017-Nov-28 01:31N 25°48' W 080°15'0 0.0
2017-Nov-28 01:01N 25°48' W 080°15'0 0.0
2017-Nov-28 00:31N 25°48' W 080°15'0 0.0
2017-Nov-28 00:01N 25°48' W 080°15'0 0.0
2017-Nov-27 23:31N 25°48' W 080°15'0 0.0
2017-Nov-27 23:00N 25°48' W 080°15'0 0.0
2017-Nov-27 22:31N 25°48' W 080°15'0 0.0
2017-Nov-27 22:00N 25°48' W 080°15'0 0.0
2017-Nov-27 21:31N 25°48' W 080°15'0 0.0
2017-Nov-27 21:01N 25°48' W 080°15'0 0.0
2017-Nov-27 20:31N 25°48' W 080°15'0 0.0
2017-Nov-27 20:01N 25°48' W 080°15'0 0.0
2017-Nov-27 19:31N 25°48' W 080°15'0 0.0
2017-Nov-27 19:01N 25°48' W 080°15'0 0.0
2017-Nov-27 18:31N 25°48' W 080°15'0 0.0
2017-Nov-27 18:00N 25°48' W 080°15'0 0.0
2017-Nov-27 17:30N 25°48' W 080°15'0 0.0
2017-Nov-27 17:00N 25°48' W 080°15'0 0.0
2017-Nov-27 16:31N 25°48' W 080°15'0 0.0
2017-Nov-27 16:01N 25°48' W 080°15'0 0.0
2017-Nov-27 15:31N 25°48' W 080°15'0 0.0
2017-Nov-27 15:01N 25°48' W 080°15'0 0.0
2017-Nov-27 14:30N 25°48' W 080°15'0 0.0
2017-Nov-27 14:01N 25°48' W 080°15'0 0.0
2017-Nov-27 13:31N 25°48' W 080°15'0 0.0
2017-Nov-27 13:00N 25°48' W 080°15'0 0.0
2017-Nov-27 12:30N 25°48' W 080°15'0 0.0
2017-Nov-27 12:01N 25°48' W 080°15'0 0.0
2017-Nov-27 11:31N 25°48' W 080°15'0 0.0
2017-Nov-27 11:00N 25°48' W 080°15'0 0.0
2017-Nov-27 10:31N 25°48' W 080°15'0 0.0
2017-Nov-27 10:00N 25°48' W 080°15'0 0.0
2017-Nov-27 09:31N 25°48' W 080°15'0 0.0
2017-Nov-27 09:01N 25°48' W 080°15'0 0.0
2017-Nov-27 08:31N 25°48' W 080°15'0 0.0
2017-Nov-27 08:01N 25°48' W 080°15'0 0.0
2017-Nov-27 07:31N 25°48' W 080°15'0 0.0
2017-Nov-27 07:01N 25°48' W 080°15'0 0.0
2017-Nov-27 06:31N 25°48' W 080°15'0 0.0
2017-Nov-27 06:01N 25°48' W 080°15'0 0.0
2017-Nov-27 05:31N 25°48' W 080°15'0 0.0
2017-Nov-27 05:01N 25°48' W 080°15'0 0.0
2017-Nov-27 04:30N 25°48' W 080°15'0 0.0
2017-Nov-27 04:01N 25°48' W 080°15'0 0.0
2017-Nov-27 03:30N 25°48' W 080°15'0 0.0
2017-Nov-27 03:01N 25°48' W 080°15'0 0.0
2017-Nov-27 02:31N 25°48' W 080°15'0 0.0
2017-Nov-27 02:01N 25°48' W 080°15'0 0.0
2017-Nov-27 01:30N 25°48' W 080°15'0 0.0
2017-Nov-27 01:00N 25°48' W 080°15'0 0.0
2017-Nov-27 00:30N 25°48' W 080°15'0 0.0
2017-Nov-27 00:00N 25°48' W 080°15'0 0.0
2017-Nov-26 23:31N 25°48' W 080°15'0 0.0
2017-Nov-26 23:00N 25°48' W 080°15'0 0.0
2017-Nov-26 22:30N 25°48' W 080°15'0 0.0
2017-Nov-26 22:01N 25°48' W 080°15'0 0.0
2017-Nov-26 21:30N 25°48' W 080°15'0 0.0
2017-Nov-26 21:01N 25°48' W 080°15'0 0.0
2017-Nov-26 20:30N 25°48' W 080°15'0 0.0
2017-Nov-26 20:01N 25°48' W 080°15'0 0.0
2017-Nov-26 19:30N 25°48' W 080°15'0 0.0
2017-Nov-26 19:01N 25°48' W 080°15'0 0.0
2017-Nov-26 18:31N 25°48' W 080°15'0 0.0
2017-Nov-26 18:01N 25°48' W 080°15'0 0.0
2017-Nov-26 17:31N 25°48' W 080°15'0 0.0
2017-Nov-26 17:01N 25°48' W 080°15'0 0.0
2017-Nov-26 16:30N 25°48' W 080°15'0 0.0
2017-Nov-26 16:01N 25°48' W 080°15'0 0.0
2017-Nov-26 15:31N 25°48' W 080°15'0 0.0
2017-Nov-26 15:01N 25°48' W 080°15'0 0.0
2017-Nov-26 14:30N 25°48' W 080°15'0 0.0
2017-Nov-26 14:01N 25°48' W 080°15'0 0.0
2017-Nov-26 13:30N 25°48' W 080°15'0 0.0
2017-Nov-26 13:00N 25°48' W 080°15'0 0.0
2017-Nov-26 12:30N 25°48' W 080°15'0 0.0
2017-Nov-26 12:01N 25°48' W 080°15'0 0.0
2017-Nov-26 11:30N 25°48' W 080°15'0 0.0
2017-Nov-26 11:00N 25°48' W 080°15'0 0.0
2017-Nov-26 10:31N 25°48' W 080°15'0 0.0
2017-Nov-26 10:00N 25°48' W 080°15'0 0.0
2017-Nov-26 09:30N 25°48' W 080°15'0 0.0
2017-Nov-26 09:01N 25°48' W 080°15'0 0.0
2017-Nov-26 08:31N 25°48' W 080°15'0 0.0
2017-Nov-26 08:01N 25°48' W 080°15'0 0.0
2017-Nov-26 07:31N 25°48' W 080°15'0 0.0
2017-Nov-26 07:01N 25°48' W 080°15'0 0.0
2017-Nov-26 06:31N 25°48' W 080°15'0 0.0
2017-Nov-26 06:01N 25°48' W 080°15'0 0.0
2017-Nov-26 05:31N 25°48' W 080°15'0 0.0
2017-Nov-26 05:01N 25°48' W 080°15'0 0.0
2017-Nov-26 04:31N 25°48' W 080°15'0 0.0
2017-Nov-26 04:01N 25°48' W 080°15'0 0.0
2017-Nov-26 03:31N 25°48' W 080°15'0 0.0
2017-Nov-26 03:01N 25°48' W 080°15'0 0.0
2017-Nov-26 02:30N 25°48' W 080°15'0 0.0
2017-Nov-26 02:01N 25°48' W 080°15'0 0.0
2017-Nov-26 01:30N 25°48' W 080°15'0 0.0
2017-Nov-26 01:01N 25°48' W 080°15'0 0.0
2017-Nov-26 00:30N 25°48' W 080°15'0 0.0
2017-Nov-26 00:00N 25°48' W 080°15'0 0.0
2017-Nov-25 23:31N 25°48' W 080°15'0 0.0
2017-Nov-25 23:01N 25°48' W 080°15'0 0.0
2017-Nov-25 22:31N 25°48' W 080°15'0 0.0
2017-Nov-25 22:00N 25°48' W 080°15'0 0.0
2017-Nov-25 21:30N 25°48' W 080°15'0 0.0
2017-Nov-25 21:00N 25°48' W 080°15'0 0.0
2017-Nov-25 20:30N 25°48' W 080°15'0 0.0
2017-Nov-25 20:01N 25°48' W 080°15'0 0.0
2017-Nov-25 19:30N 25°48' W 080°15'0 0.0
2017-Nov-25 19:00N 25°48' W 080°15'0 0.0
2017-Nov-25 18:30N 25°48' W 080°15'0 0.0
2017-Nov-25 18:00N 25°48' W 080°15'0 0.0
2017-Nov-25 17:30N 25°48' W 080°15'0 0.0
2017-Nov-25 17:00N 25°48' W 080°15'0 0.0
2017-Nov-25 16:30N 25°48' W 080°15'0 0.0
2017-Nov-25 16:01N 25°48' W 080°15'0 0.0
2017-Nov-25 15:31N 25°48' W 080°15'0 0.0
2017-Nov-25 15:00N 25°48' W 080°15'0 0.0
2017-Nov-25 14:30N 25°48' W 080°15'0 0.0
2017-Nov-25 14:00N 25°48' W 080°15'0 0.0
2017-Nov-25 13:30N 25°48' W 080°15'0 0.0
2017-Nov-25 13:00N 25°48' W 080°15'0 0.0
2017-Nov-25 12:30N 25°48' W 080°15'0 0.0
2017-Nov-25 12:00N 25°48' W 080°15'0 0.0
2017-Nov-25 11:30N 25°48' W 080°15'0 0.0
2017-Nov-25 11:00N 25°48' W 080°15'0 0.0
2017-Nov-25 10:30N 25°48' W 080°15'0 0.0
2017-Nov-25 10:00N 25°48' W 080°15'0 0.0
2017-Nov-25 09:30N 25°48' W 080°15'0 0.0
2017-Nov-25 09:00N 25°48' W 080°15'0 0.0
2017-Nov-25 08:30N 25°48' W 080°15'0 0.0
2017-Nov-25 08:00N 25°48' W 080°15'0 0.0
2017-Nov-25 07:30N 25°48' W 080°15'0 0.0
2017-Nov-25 07:00N 25°48' W 080°15'0 0.0
2017-Nov-25 06:30N 25°48' W 080°15'0 0.0
2017-Nov-25 06:00N 25°48' W 080°15'0 0.0
2017-Nov-25 05:30N 25°48' W 080°15'0 0.0
2017-Nov-25 05:00N 25°48' W 080°15'0 0.0
2017-Nov-25 04:30N 25°48' W 080°15'0 0.0
2017-Nov-25 04:00N 25°48' W 080°15'0 0.0
2017-Nov-25 03:30N 25°48' W 080°15'0 0.0
2017-Nov-25 03:00N 25°48' W 080°15'0 0.0
2017-Nov-25 02:30N 25°48' W 080°15'0 0.0
2017-Nov-25 02:00N 25°48' W 080°15'0 0.0
2017-Nov-25 01:30N 25°48' W 080°15'0 0.0
2017-Nov-25 01:00N 25°48' W 080°15'0 0.0
2017-Nov-25 00:30N 25°48' W 080°15'0 0.0
2017-Nov-24 23:59N 25°48' W 080°15'0 0.0
2017-Nov-24 23:30N 25°48' W 080°15'0 0.0
2017-Nov-24 23:00N 25°48' W 080°15'0 0.0
2017-Nov-24 22:30N 25°48' W 080°15'0 0.0
2017-Nov-24 22:00N 25°48' W 080°15'0 0.0
2017-Nov-24 21:30N 25°48' W 080°15'0 0.0
2017-Nov-24 21:00N 25°48' W 080°15'0 0.0
2017-Nov-24 20:30N 25°48' W 080°15'0 0.0
2017-Nov-24 20:00N 25°48' W 080°15'0 0.0
2017-Nov-24 19:30N 25°48' W 080°15'0 0.0
2017-Nov-24 19:00N 25°48' W 080°15'0 0.0
2017-Nov-24 18:30N 25°48' W 080°15'0 0.0
2017-Nov-24 18:00N 25°48' W 080°15'0 0.0
2017-Nov-24 17:30N 25°48' W 080°15'0 0.0
2017-Nov-24 17:00N 25°48' W 080°15'0 0.0
2017-Nov-24 16:30N 25°48' W 080°15'0 0.0
2017-Nov-24 16:00N 25°48' W 080°15'0 0.0
2017-Nov-24 15:30N 25°48' W 080°15'0 0.0
2017-Nov-24 15:00N 25°48' W 080°15'0 0.0
2017-Nov-24 14:30N 25°48' W 080°15'0 0.0
2017-Nov-24 14:00N 25°48' W 080°15'0 0.0
2017-Nov-24 13:30N 25°48' W 080°15'0 0.0
2017-Nov-24 13:00N 25°48' W 080°15'0 0.0
2017-Nov-24 12:30N 25°48' W 080°15'0 0.0
2017-Nov-24 12:00N 25°48' W 080°15'0 0.0
2017-Nov-24 11:30N 25°48' W 080°15'0 0.0
2017-Nov-24 11:00N 25°48' W 080°15'0 0.0
2017-Nov-24 10:30N 25°48' W 080°15'0 0.0
2017-Nov-24 10:00N 25°48' W 080°15'0 0.0
2017-Nov-24 09:30N 25°48' W 080°15'0 0.0
2017-Nov-24 09:00N 25°48' W 080°15'0 0.0
2017-Nov-24 08:30N 25°48' W 080°15'0 0.0
2017-Nov-24 08:00N 25°48' W 080°15'0 0.0
2017-Nov-24 07:30N 25°48' W 080°15'0 0.0
2017-Nov-24 07:00N 25°48' W 080°15'0 0.0
2017-Nov-24 06:30N 25°48' W 080°15'0 0.0
2017-Nov-24 06:00N 25°48' W 080°15'0 0.0
2017-Nov-24 05:30N 25°48' W 080°15'0 0.0
2017-Nov-24 05:00N 25°48' W 080°15'0 0.0
2017-Nov-24 04:30N 25°48' W 080°15'0 0.0
2017-Nov-24 04:00N 25°48' W 080°15'0 0.0
2017-Nov-24 03:30N 25°48' W 080°15'0 0.0
2017-Nov-24 03:00N 25°48' W 080°15'0 0.0
2017-Nov-24 02:30N 25°48' W 080°15'0 0.0
2017-Nov-24 02:00N 25°48' W 080°15'0 0.0
2017-Nov-24 01:30N 25°48' W 080°15'0 0.0
2017-Nov-24 01:00N 25°48' W 080°15'0 0.0
2017-Nov-24 00:30N 25°48' W 080°15'0 0.0
2017-Nov-24 00:00N 25°48' W 080°15'0 0.0
2017-Nov-23 23:30N 25°48' W 080°15'0 0.0
2017-Nov-23 23:00N 25°48' W 080°15'0 0.0
2017-Nov-23 22:30N 25°48' W 080°15'0 0.0
2017-Nov-23 22:00N 25°48' W 080°15'0 0.0
2017-Nov-23 21:30N 25°48' W 080°15'0 0.0
2017-Nov-23 21:00N 25°48' W 080°15'0 0.0
2017-Nov-23 20:30N 25°48' W 080°15'0 0.0
2017-Nov-23 20:00N 25°48' W 080°15'0 0.0
2017-Nov-23 19:30N 25°48' W 080°15'0 0.0
2017-Nov-23 19:00N 25°48' W 080°15'0 0.0
2017-Nov-23 18:30N 25°48' W 080°15'0 0.0
2017-Nov-23 18:01N 25°48' W 080°15'0 0.0
2017-Nov-23 17:30N 25°48' W 080°15'0 0.0
2017-Nov-23 17:01N 25°48' W 080°15'0 0.0
2017-Nov-23 16:31N 25°48' W 080°15'0 0.0
2017-Nov-23 16:01N 25°48' W 080°15'0 0.0
2017-Nov-23 15:31N 25°48' W 080°15'0 0.0
2017-Nov-23 15:01N 25°48' W 080°15'0 0.0
2017-Nov-23 14:31N 25°48' W 080°15'0 0.0
2017-Nov-23 14:00N 25°48' W 080°15'0 0.0
2017-Nov-23 13:31N 25°48' W 080°15'0 0.0
2017-Nov-23 13:00N 25°48' W 080°15'0 0.0
2017-Nov-23 12:31N 25°48' W 080°15'0 0.0
2017-Nov-23 12:00N 25°48' W 080°15'0 0.0
2017-Nov-23 11:30N 25°48' W 080°15'0 0.0
2017-Nov-23 11:01N 25°48' W 080°15'0 0.0
2017-Nov-23 10:31N 25°48' W 080°15'0 0.0
2017-Nov-23 10:01N 25°48' W 080°15'0 0.0
2017-Nov-23 09:30N 25°48' W 080°15'0 0.0
2017-Nov-23 09:01N 25°48' W 080°15'0 0.0
2017-Nov-23 08:31N 25°48' W 080°15'0 0.0
2017-Nov-23 08:00N 25°48' W 080°15'0 0.0
2017-Nov-23 07:31N 25°48' W 080°15'0 0.0
2017-Nov-23 07:00N 25°48' W 080°15'0 0.0
2017-Nov-23 06:31N 25°48' W 080°15'0 0.0
2017-Nov-23 06:00N 25°48' W 080°15'0 0.0
2017-Nov-23 05:30N 25°48' W 080°15'0 0.0
2017-Nov-23 05:01N 25°48' W 080°15'0 0.0
2017-Nov-23 04:30N 25°48' W 080°15'0 0.0
2017-Nov-23 04:00N 25°48' W 080°15'0 0.0
2017-Nov-23 03:30N 25°48' W 080°15'0 0.0
2017-Nov-23 03:01N 25°48' W 080°15'0 0.0
2017-Nov-23 02:31N 25°48' W 080°15'0 0.0
2017-Nov-23 02:01N 25°48' W 080°15'0 0.0
2017-Nov-23 01:31N 25°48' W 080°15'0 0.0
2017-Nov-23 01:01N 25°48' W 080°15'0 0.0
2017-Nov-23 00:30N 25°48' W 080°15'0 0.0
2017-Nov-23 00:01N 25°48' W 080°15'0 0.0
2017-Nov-22 23:30N 25°48' W 080°15'0 0.0
2017-Nov-22 23:01N 25°48' W 080°15'0 0.0
2017-Nov-22 22:31N 25°48' W 080°15'0 0.0
2017-Nov-22 22:00N 25°48' W 080°15'0 0.0
2017-Nov-22 21:31N 25°48' W 080°15'0 0.0
2017-Nov-22 21:01N 25°48' W 080°15'0 0.0
2017-Nov-22 20:30N 25°48' W 080°15'0 0.0
2017-Nov-22 20:01N 25°48' W 080°15'0 0.0
2017-Nov-22 19:31N 25°48' W 080°15'  

Dump ship's entire track history